createdAt,value
2023-05-19T00:00:25.602Z,146.08
2023-05-19T00:01:25.687Z,144.46
2023-05-19T00:02:25.848Z,144.18
2023-05-19T00:03:25.828Z,142.80
2023-05-19T00:04:25.808Z,139.38
2023-05-19T00:05:25.965Z,142.09
2023-05-19T00:06:25.934Z,142.77
2023-05-19T00:07:25.998Z,143.26
2023-05-19T00:08:26.042Z,141.61
2023-05-19T00:09:26.100Z,141.76
2023-05-19T00:10:26.137Z,140.43
2023-05-19T00:11:26.212Z,137.44
2023-05-19T00:12:26.262Z,138.54
2023-05-19T00:13:26.305Z,141.11
2023-05-19T00:14:26.400Z,139.79
2023-05-19T00:15:26.429Z,140.54
2023-05-19T00:16:26.498Z,140.37
2023-05-19T00:17:26.570Z,140.78
2023-05-19T00:18:26.624Z,141.25
2023-05-19T00:19:26.678Z,140.95
2023-05-19T00:20:26.664Z,142.33
2023-05-19T00:21:26.723Z,143.72
2023-05-19T00:22:26.786Z,143.31
2023-05-19T00:23:26.847Z,146.98
2023-05-19T00:24:26.920Z,146.23
2023-05-19T00:25:26.961Z,143.81
2023-05-19T00:26:27.087Z,144.89
2023-05-19T00:27:27.065Z,146.88
2023-05-19T00:28:27.155Z,145.21
2023-05-19T00:29:27.203Z,142.78
2023-05-19T00:30:27.222Z,144.28
2023-05-19T00:31:27.324Z,146.33
2023-05-19T00:32:27.342Z,145.90
2023-05-19T00:33:27.368Z,144.84
2023-05-19T00:34:27.419Z,146.31
2023-05-19T00:35:27.486Z,145.78
2023-05-19T00:36:27.546Z,146.23
2023-05-19T00:37:27.606Z,144.16
2023-05-19T00:38:27.669Z,145.61
2023-05-19T00:39:27.712Z,145.73
2023-05-19T00:40:27.815Z,147.87
2023-05-19T00:41:27.807Z,147.03
2023-05-19T00:42:27.830Z,150.14
2023-05-19T00:43:27.852Z,147.80
2023-05-19T00:44:27.911Z,149.22
2023-05-19T00:45:27.923Z,151.32
2023-05-19T00:46:28.050Z,152.27
2023-05-19T00:47:28.074Z,153.58
2023-05-19T00:48:28.128Z,152.25
2023-05-19T00:49:28.172Z,155.17
2023-05-19T00:50:28.212Z,153.62
2023-05-19T00:51:28.275Z,154.01
2023-05-19T00:52:28.284Z,151.85
2023-05-19T00:53:28.336Z,154.94
2023-05-19T00:54:28.379Z,158.71
2023-05-19T00:55:28.434Z,157.80
2023-05-19T00:56:28.503Z,157.46
2023-05-19T00:57:28.553Z,157.83
2023-05-19T00:58:28.563Z,155.32
2023-05-19T00:59:28.628Z,154.84
2023-05-19T01:00:28.708Z,155.70
2023-05-19T01:01:28.875Z,164.02
2023-05-19T01:02:28.952Z,160.71
2023-05-19T01:03:28.951Z,158.14
2023-05-19T01:04:28.946Z,161.64
2023-05-19T01:05:29.010Z,160.16
2023-05-19T01:06:29.049Z,162.20
2023-05-19T01:07:29.114Z,159.36
2023-05-19T01:08:29.176Z,161.66
2023-05-19T01:09:29.283Z,162.02
2023-05-19T01:10:29.331Z,162.49
2023-05-19T01:11:29.289Z,160.99
2023-05-19T01:12:29.352Z,161.87
2023-05-19T01:13:29.391Z,163.35
2023-05-19T01:14:29.472Z,163.29
2023-05-19T01:15:29.494Z,163.52
2023-05-19T01:16:29.575Z,163.02
2023-05-19T01:17:29.612Z,165.25
2023-05-19T01:18:29.611Z,162.63
2023-05-19T01:19:29.675Z,170.87
2023-05-19T01:20:29.853Z,169.88
2023-05-19T01:21:29.792Z,171.09
2023-05-19T01:22:29.849Z,171.64
2023-05-19T01:23:29.852Z,168.42
2023-05-19T01:24:29.890Z,168.54
2023-05-19T01:25:29.952Z,170.62
2023-05-19T01:26:29.985Z,172.96
2023-05-19T01:27:30.032Z,171.19
2023-05-19T01:28:30.087Z,172.97
2023-05-19T01:29:30.143Z,174.27
2023-05-19T01:30:30.422Z,174.19
2023-05-19T01:31:30.302Z,173.41
2023-05-19T01:32:30.381Z,176.15
2023-05-19T01:33:30.388Z,174.84
2023-05-19T01:34:30.452Z,174.81
2023-05-19T01:35:30.506Z,175.65
2023-05-19T01:36:30.553Z,174.26
2023-05-19T01:37:30.602Z,176.55
2023-05-19T01:38:30.673Z,175.64
2023-05-19T01:39:30.739Z,176.35
2023-05-19T01:40:30.998Z,178.60
2023-05-19T01:41:30.881Z,180.30
2023-05-19T01:42:30.930Z,181.53
2023-05-19T01:43:30.996Z,179.82
2023-05-19T01:44:31.040Z,182.83
2023-05-19T01:45:31.155Z,181.43
2023-05-19T01:46:31.209Z,181.65
2023-05-19T01:47:31.221Z,181.76
2023-05-19T01:48:31.200Z,183.81
2023-05-19T01:49:31.247Z,185.96
2023-05-19T01:50:31.511Z,185.45
2023-05-19T01:51:31.384Z,186.02
2023-05-19T01:52:31.434Z,185.80
2023-05-19T01:53:31.504Z,185.97
2023-05-19T01:54:31.542Z,189.05
2023-05-19T01:55:31.567Z,191.96
2023-05-19T01:56:31.631Z,190.32
2023-05-19T01:57:31.679Z,189.87
2023-05-19T01:58:31.758Z,188.70
2023-05-19T01:59:31.827Z,192.57
2023-05-19T02:00:32.198Z,190.66
2023-05-19T02:01:31.967Z,192.64
2023-05-19T02:02:32.009Z,193.18
2023-05-19T02:03:32.033Z,191.73
2023-05-19T02:04:32.168Z,189.00
2023-05-19T02:05:32.157Z,186.73
2023-05-19T02:06:32.263Z,188.21
2023-05-19T02:07:32.246Z,187.86
2023-05-19T02:08:32.310Z,189.21
2023-05-19T02:09:32.372Z,189.23
2023-05-19T02:10:32.484Z,191.30
2023-05-19T02:11:32.379Z,192.66
2023-05-19T02:12:32.409Z,190.04
2023-05-19T02:13:32.490Z,192.67
2023-05-19T02:14:32.560Z,186.75
2023-05-19T02:15:32.605Z,189.59
2023-05-19T02:16:32.673Z,192.05
2023-05-19T02:17:32.750Z,194.42
2023-05-19T02:18:32.797Z,193.36
2023-05-19T02:19:32.817Z,192.42
2023-05-19T02:20:33.068Z,195.78
2023-05-19T02:21:32.929Z,193.85
2023-05-19T02:22:32.949Z,194.52
2023-05-19T02:23:33.019Z,194.94
2023-05-19T02:24:33.061Z,204.51
2023-05-19T02:25:33.127Z,211.27
2023-05-19T02:26:33.174Z,207.45
2023-05-19T02:27:33.236Z,206.05
2023-05-19T02:28:33.362Z,205.83
2023-05-19T02:29:33.366Z,199.08
2023-05-19T02:30:33.574Z,201.83
2023-05-19T02:31:33.493Z,199.88
2023-05-19T02:32:33.604Z,201.94
2023-05-19T02:33:33.597Z,200.69
2023-05-19T02:34:33.660Z,200.52
2023-05-19T02:35:33.742Z,199.95
2023-05-19T02:36:33.793Z,199.51
2023-05-19T02:37:33.851Z,203.12
2023-05-19T02:38:33.926Z,207.16
2023-05-19T02:39:34.005Z,205.70
2023-05-19T02:40:34.196Z,203.61
2023-05-19T02:41:34.233Z,207.69
2023-05-19T02:42:34.455Z,207.59
2023-05-19T02:43:34.610Z,208.17
2023-05-19T02:44:34.739Z,214.07
2023-05-19T02:45:34.934Z,214.09
2023-05-19T02:46:35.228Z,210.99
2023-05-19T02:47:36.917Z,213.96
2023-05-19T02:48:35.229Z,210.00
2023-05-19T02:49:35.301Z,211.00
2023-05-19T02:50:35.360Z,211.65
2023-05-19T02:51:35.405Z,222.94
2023-05-19T02:52:35.460Z,216.23
2023-05-19T02:53:35.532Z,216.33
2023-05-19T02:54:35.617Z,212.05
2023-05-19T02:55:35.664Z,213.00
2023-05-19T02:56:35.720Z,212.24
2023-05-19T02:57:35.808Z,222.65
2023-05-19T02:58:35.815Z,228.97
2023-05-19T02:59:35.854Z,231.87
2023-05-19T03:00:35.923Z,227.48
2023-05-19T03:01:36.013Z,223.88
2023-05-19T03:02:36.093Z,220.32
2023-05-19T03:03:36.145Z,221.04
2023-05-19T03:04:36.093Z,222.54
2023-05-19T03:05:36.140Z,226.83
2023-05-19T03:06:36.210Z,219.99
2023-05-19T03:07:36.240Z,221.73
2023-05-19T03:08:36.296Z,227.05
2023-05-19T03:09:36.346Z,232.24
2023-05-19T03:10:36.408Z,235.60
2023-05-19T03:11:36.469Z,231.21
2023-05-19T03:12:36.499Z,234.03
2023-05-19T03:13:36.574Z,242.17
2023-05-19T03:14:36.621Z,246.95
2023-05-19T03:15:36.698Z,243.09
2023-05-19T03:16:36.851Z,242.85
2023-05-19T03:17:36.854Z,245.90
2023-05-19T03:18:36.878Z,244.59
2023-05-19T03:19:36.824Z,233.36
2023-05-19T03:20:36.896Z,230.57
2023-05-19T03:21:36.913Z,236.19
2023-05-19T03:22:36.943Z,238.64
2023-05-19T03:23:36.983Z,231.96
2023-05-19T03:24:37.042Z,231.64
2023-05-19T03:25:37.098Z,227.87
2023-05-19T03:26:37.107Z,230.87
2023-05-19T03:27:37.135Z,232.20
2023-05-19T03:28:37.215Z,231.11
2023-05-19T03:29:37.284Z,237.92
2023-05-19T03:30:37.381Z,239.73
2023-05-19T03:31:37.398Z,236.85
2023-05-19T03:32:37.520Z,237.17
2023-05-19T03:33:37.626Z,233.37
2023-05-19T03:34:37.566Z,229.71
2023-05-19T03:35:37.624Z,231.34
2023-05-19T03:36:37.687Z,229.26
2023-05-19T03:37:37.751Z,229.96
2023-05-19T03:38:37.786Z,230.09
2023-05-19T03:39:37.868Z,234.74
2023-05-19T03:40:37.913Z,239.86
2023-05-19T03:41:38.000Z,243.92
2023-05-19T03:42:38.048Z,246.18
2023-05-19T03:43:38.086Z,246.76
2023-05-19T03:44:38.146Z,244.88
2023-05-19T03:45:38.259Z,250.00
2023-05-19T03:46:38.284Z,246.56
2023-05-19T03:47:38.378Z,248.92
2023-05-19T03:48:38.392Z,248.23
2023-05-19T03:49:38.455Z,248.52
2023-05-19T03:50:38.473Z,247.67
2023-05-19T03:51:38.562Z,240.07
2023-05-19T03:52:38.684Z,236.94
2023-05-19T03:53:38.689Z,234.08
2023-05-19T03:54:38.703Z,231.69
2023-05-19T03:55:38.762Z,232.74
2023-05-19T03:56:38.825Z,231.77
2023-05-19T03:57:38.892Z,237.13
2023-05-19T03:58:38.960Z,244.22
2023-05-19T03:59:39.010Z,246.44
2023-05-19T04:00:39.091Z,240.69
2023-05-19T04:01:39.166Z,241.55
2023-05-19T04:02:39.284Z,240.89
2023-05-19T04:03:39.311Z,245.95
2023-05-19T04:04:39.388Z,243.45
2023-05-19T04:05:39.391Z,244.94
2023-05-19T04:06:39.440Z,243.91
2023-05-19T04:07:39.469Z,239.29
2023-05-19T04:08:39.540Z,240.08
2023-05-19T04:09:39.597Z,238.36
2023-05-19T04:10:39.645Z,245.69
2023-05-19T04:11:39.734Z,249.88
2023-05-19T04:12:39.785Z,250.00
2023-05-19T04:13:39.831Z,250.00
2023-05-19T04:14:39.895Z,249.64
2023-05-19T04:15:40.005Z,247.58
2023-05-19T04:16:40.001Z,245.96
2023-05-19T04:17:40.085Z,239.35
2023-05-19T04:18:40.114Z,242.57
2023-05-19T04:19:40.159Z,247.89
2023-05-19T04:20:40.197Z,248.17
2023-05-19T04:21:40.498Z,250.61
2023-05-19T04:22:40.323Z,248.18
2023-05-19T04:23:40.385Z,246.60
2023-05-19T04:24:40.477Z,249.02
2023-05-19T04:25:40.503Z,247.20
2023-05-19T04:26:40.573Z,246.00
2023-05-19T04:27:40.611Z,247.22
2023-05-19T04:28:40.692Z,245.30
2023-05-19T04:29:40.763Z,245.89
2023-05-19T04:30:40.832Z,246.07
2023-05-19T04:31:40.972Z,244.18
2023-05-19T04:32:40.901Z,244.91
2023-05-19T04:33:40.905Z,247.61
2023-05-19T04:34:40.951Z,248.66
2023-05-19T04:35:41.016Z,248.12
2023-05-19T04:36:41.076Z,248.02
2023-05-19T04:37:41.101Z,244.00
2023-05-19T04:38:41.188Z,241.92
2023-05-19T04:39:41.234Z,243.03
2023-05-19T04:40:41.294Z,241.81
2023-05-19T04:41:41.350Z,243.66
2023-05-19T04:42:41.412Z,241.41
2023-05-19T04:43:41.471Z,241.27
2023-05-19T04:44:41.521Z,240.26
2023-05-19T04:45:41.565Z,236.80
2023-05-19T04:46:41.678Z,238.17
2023-05-19T04:47:41.740Z,235.65
2023-05-19T04:48:41.770Z,238.67
2023-05-19T04:49:41.748Z,234.67
2023-05-19T04:50:41.802Z,236.38
2023-05-19T04:51:41.843Z,237.30
2023-05-19T04:52:41.919Z,235.22
2023-05-19T04:53:41.944Z,229.64
2023-05-19T04:54:42.056Z,232.83
2023-05-19T04:55:42.065Z,233.30
2023-05-19T04:56:42.090Z,230.21
2023-05-19T04:57:42.143Z,226.69
2023-05-19T04:58:42.164Z,224.10
2023-05-19T04:59:42.254Z,225.32
2023-05-19T05:00:42.265Z,226.68
2023-05-19T05:01:42.391Z,230.17
2023-05-19T05:02:42.424Z,228.17
2023-05-19T05:03:42.489Z,224.25
2023-05-19T05:04:42.627Z,226.04
2023-05-19T05:05:42.503Z,229.22
2023-05-19T05:06:42.543Z,226.79
2023-05-19T05:07:42.590Z,223.49
2023-05-19T05:08:42.665Z,219.29
2023-05-19T05:09:42.690Z,218.12
2023-05-19T05:10:42.734Z,216.21
2023-05-19T05:11:42.788Z,215.92
2023-05-19T05:12:42.839Z,213.65
2023-05-19T05:13:42.870Z,211.52
2023-05-19T05:14:42.940Z,210.05
2023-05-19T05:15:43.016Z,211.18
2023-05-19T05:16:43.131Z,209.33
2023-05-19T05:17:43.096Z,208.14
2023-05-19T05:18:44.916Z,206.05
2023-05-19T05:19:43.162Z,204.96
2023-05-19T05:20:43.237Z,207.71
2023-05-19T05:21:43.300Z,204.78
2023-05-19T05:22:43.317Z,201.40
2023-05-19T05:23:43.403Z,200.92
2023-05-19T05:24:43.443Z,202.81
2023-05-19T05:25:43.478Z,201.19
2023-05-19T05:26:43.525Z,203.88
2023-05-19T05:27:43.572Z,203.07
2023-05-19T05:28:43.622Z,200.48
2023-05-19T05:29:43.660Z,202.19
2023-05-19T05:30:43.719Z,198.12
2023-05-19T05:31:43.803Z,197.91
2023-05-19T05:32:43.871Z,197.72
2023-05-19T05:33:43.892Z,198.16
2023-05-19T05:34:44.057Z,195.94
2023-05-19T05:35:43.993Z,193.50
2023-05-19T05:36:44.060Z,193.31
2023-05-19T05:37:44.063Z,194.82
2023-05-19T05:38:44.096Z,196.49
2023-05-19T05:39:44.164Z,192.31
2023-05-19T05:40:44.204Z,193.92
2023-05-19T05:41:44.256Z,195.89
2023-05-19T05:42:44.316Z,196.83
2023-05-19T05:43:44.346Z,197.41
2023-05-19T05:44:44.413Z,194.52
2023-05-19T05:45:44.484Z,194.48
2023-05-19T05:46:44.511Z,196.57
2023-05-19T05:47:44.578Z,197.57
2023-05-19T05:48:44.589Z,196.39
2023-05-19T05:49:44.654Z,194.81
2023-05-19T05:50:44.693Z,191.66
2023-05-19T05:51:57.933Z,192.20
2023-05-19T05:52:45.740Z,192.33
2023-05-19T05:53:44.749Z,192.82
2023-05-19T05:54:44.715Z,192.83
2023-05-19T05:55:44.704Z,193.81
2023-05-19T05:56:44.706Z,194.27
2023-05-19T05:57:44.725Z,195.97
2023-05-19T05:58:44.690Z,194.75
2023-05-19T05:59:44.681Z,196.37
2023-05-19T06:00:44.703Z,198.12
2023-05-19T06:01:44.688Z,197.00
2023-05-19T06:02:44.775Z,194.99
2023-05-19T06:03:44.722Z,197.55
2023-05-19T06:04:44.693Z,197.94
2023-05-19T06:05:44.802Z,193.97
2023-05-19T06:06:44.799Z,195.77
2023-05-19T06:07:44.821Z,192.90
2023-05-19T06:08:44.876Z,191.30
2023-05-19T06:09:44.940Z,192.19
2023-05-19T06:10:47.206Z,193.33
2023-05-19T06:11:45.138Z,194.32
2023-05-19T06:12:45.179Z,195.51
2023-05-19T06:13:45.352Z,197.95
2023-05-19T06:14:45.226Z,198.21
2023-05-19T06:15:45.296Z,196.55
2023-05-19T06:16:45.315Z,197.79
2023-05-19T06:17:45.379Z,199.21
2023-05-19T06:18:45.455Z,199.59
2023-05-19T06:19:45.435Z,199.11
2023-05-19T06:20:45.445Z,199.16
2023-05-19T06:21:45.491Z,201.07
2023-05-19T06:22:45.538Z,201.70
2023-05-19T06:23:45.563Z,205.34
2023-05-19T06:24:45.663Z,210.37
2023-05-19T06:25:45.650Z,209.86
2023-05-19T06:26:45.650Z,215.36
2023-05-19T06:27:45.687Z,220.17
2023-05-19T06:28:45.679Z,222.58
2023-05-19T06:29:45.705Z,223.61
2023-05-19T06:30:45.721Z,221.49
2023-05-19T06:31:45.793Z,226.02
2023-05-19T06:32:45.853Z,233.68
2023-05-19T06:33:45.834Z,240.53
2023-05-19T06:34:46.018Z,246.46
2023-05-19T06:35:45.896Z,253.33
2023-05-19T06:36:45.943Z,249.92
2023-05-19T06:37:45.998Z,247.25
2023-05-19T06:38:46.052Z,249.35
2023-05-19T06:39:46.048Z,248.44
2023-05-19T06:40:46.067Z,250.54
2023-05-19T06:41:46.298Z,250.00
2023-05-19T06:42:46.184Z,248.90
2023-05-19T06:43:46.141Z,249.47
2023-05-19T06:44:46.319Z,246.75
2023-05-19T06:45:46.163Z,246.61
2023-05-19T06:46:46.283Z,244.85
2023-05-19T06:47:46.337Z,242.34
2023-05-19T06:48:46.289Z,242.96
2023-05-19T06:49:46.363Z,238.63
2023-05-19T06:50:46.359Z,234.49
2023-05-19T06:51:46.322Z,231.98
2023-05-19T06:52:46.354Z,230.97
2023-05-19T06:53:46.352Z,225.36
2023-05-19T06:54:46.352Z,222.32
2023-05-19T06:55:58.056Z,221.35
2023-05-19T06:56:47.461Z,221.48
2023-05-19T06:57:46.361Z,221.64
2023-05-19T06:58:46.369Z,221.31
2023-05-19T06:59:46.345Z,220.15
2023-05-19T07:00:46.334Z,216.52
2023-05-19T07:01:46.379Z,216.73
2023-05-19T07:02:46.365Z,215.71
2023-05-19T07:03:46.373Z,215.59
2023-05-19T07:04:46.441Z,213.67
2023-05-19T07:05:46.336Z,213.82
2023-05-19T07:06:46.362Z,217.96
2023-05-19T07:07:46.322Z,216.91
2023-05-19T07:08:46.348Z,212.65
2023-05-19T07:09:46.272Z,212.20
2023-05-19T07:10:46.272Z,209.57
2023-05-19T07:11:46.291Z,210.68
2023-05-19T07:12:46.287Z,215.64
2023-05-19T07:13:46.277Z,212.76
2023-05-19T07:14:46.259Z,212.27
2023-05-19T07:15:46.224Z,211.34
2023-05-19T07:16:46.462Z,214.54
2023-05-19T07:17:46.235Z,213.06
2023-05-19T07:18:46.467Z,217.47
2023-05-19T07:19:46.328Z,220.44
2023-05-19T07:20:46.189Z,215.86
2023-05-19T07:21:46.421Z,217.32
2023-05-19T07:22:46.182Z,215.66
2023-05-19T07:23:46.184Z,212.63
2023-05-19T07:24:46.223Z,208.11
2023-05-19T07:25:46.181Z,213.94
2023-05-19T07:26:46.190Z,218.29
2023-05-19T07:27:46.199Z,219.99
2023-05-19T07:28:46.214Z,217.89
2023-05-19T07:29:46.217Z,216.56
2023-05-19T07:30:46.230Z,220.75
2023-05-19T07:31:46.288Z,216.46
2023-05-19T07:32:46.400Z,217.84
2023-05-19T07:33:46.293Z,214.44
2023-05-19T07:34:46.285Z,210.12
2023-05-19T07:35:46.289Z,209.01
2023-05-19T07:36:46.308Z,207.44
2023-05-19T07:37:46.329Z,205.45
2023-05-19T07:38:46.313Z,209.78
2023-05-19T07:39:46.306Z,212.24
2023-05-19T07:40:46.301Z,210.65
2023-05-19T07:41:46.303Z,205.97
2023-05-19T07:42:46.280Z,201.96
2023-05-19T07:43:46.368Z,202.89
2023-05-19T07:44:46.337Z,204.66
2023-05-19T07:45:46.306Z,208.12
2023-05-19T07:46:46.319Z,210.11
2023-05-19T07:47:46.396Z,208.85
2023-05-19T07:48:46.350Z,207.31
2023-05-19T07:49:46.388Z,208.01
2023-05-19T07:50:46.355Z,209.73
2023-05-19T07:51:46.414Z,206.55
2023-05-19T07:52:46.410Z,205.65
2023-05-19T07:53:46.459Z,201.83
2023-05-19T07:54:46.538Z,206.17
2023-05-19T07:55:46.574Z,206.43
2023-05-19T07:56:46.632Z,205.57
2023-05-19T07:57:46.681Z,207.01
2023-05-19T07:58:46.926Z,207.91
2023-05-19T07:59:46.816Z,204.68
2023-05-19T08:00:46.861Z,207.83
2023-05-19T08:01:46.920Z,210.21
2023-05-19T08:02:47.068Z,211.29
2023-05-19T08:03:47.098Z,211.74
2023-05-19T08:04:47.136Z,208.95
2023-05-19T08:05:47.139Z,210.85
2023-05-19T08:06:47.187Z,211.45
2023-05-19T08:07:47.242Z,211.28
2023-05-19T08:08:47.352Z,214.73
2023-05-19T08:09:47.320Z,213.97
2023-05-19T08:10:47.379Z,209.57
2023-05-19T08:11:47.426Z,214.54
2023-05-19T08:12:47.450Z,215.60
2023-05-19T08:13:47.521Z,213.50
2023-05-19T08:14:47.535Z,212.14
2023-05-19T08:15:47.612Z,213.70
2023-05-19T08:16:47.614Z,212.79
2023-05-19T08:17:47.650Z,212.96
2023-05-19T08:18:47.681Z,215.66
2023-05-19T08:19:47.664Z,212.88
2023-05-19T08:20:47.766Z,216.93
2023-05-19T08:21:47.718Z,215.21
2023-05-19T08:22:47.772Z,213.29
2023-05-19T08:23:47.773Z,214.25
2023-05-19T08:24:47.819Z,214.51
2023-05-19T08:25:47.874Z,216.19
2023-05-19T08:26:47.924Z,216.19
2023-05-19T08:27:47.953Z,216.59
2023-05-19T08:28:48.009Z,220.16
2023-05-19T08:29:48.039Z,219.88
2023-05-19T08:30:48.097Z,220.92
2023-05-19T08:31:48.290Z,220.93
2023-05-19T08:32:48.204Z,221.57
2023-05-19T08:33:48.255Z,221.17
2023-05-19T08:34:48.300Z,218.30
2023-05-19T08:35:48.365Z,221.92
2023-05-19T08:36:48.409Z,222.97
2023-05-19T08:37:48.481Z,225.89
2023-05-19T08:38:48.545Z,223.13
2023-05-19T08:39:48.598Z,220.54
2023-05-19T08:40:48.752Z,221.60
2023-05-19T08:41:48.700Z,219.82
2023-05-19T08:42:48.754Z,219.77
2023-05-19T08:43:48.777Z,217.90
2023-05-19T08:44:48.848Z,222.12
2023-05-19T08:45:48.918Z,222.59
2023-05-19T08:46:49.002Z,221.02
2023-05-19T08:47:49.071Z,221.01
2023-05-19T08:48:49.085Z,218.42
2023-05-19T08:49:49.136Z,217.57
2023-05-19T08:50:49.189Z,213.50
2023-05-19T08:51:49.294Z,215.31
2023-05-19T08:52:51.815Z,214.99
2023-05-19T08:53:49.286Z,216.17
2023-05-19T08:54:49.280Z,216.86
2023-05-19T08:55:49.268Z,214.93
2023-05-19T08:56:49.269Z,214.99
2023-05-19T08:57:49.254Z,213.84
2023-05-19T08:58:49.284Z,216.54
2023-05-19T08:59:49.262Z,214.09
2023-05-19T09:00:49.237Z,217.80
2023-05-19T09:01:49.225Z,217.09
2023-05-19T09:02:59.813Z,218.85
2023-05-19T09:03:50.701Z,218.87
2023-05-19T09:04:49.227Z,217.35
2023-05-19T09:05:49.265Z,215.25
2023-05-19T09:06:49.200Z,214.30
2023-05-19T09:07:49.190Z,212.37
2023-05-19T09:08:49.208Z,209.82
2023-05-19T09:09:49.175Z,212.25
2023-05-19T09:10:49.169Z,208.98
2023-05-19T09:11:49.161Z,208.75
2023-05-19T09:12:49.235Z,208.82
2023-05-19T09:13:49.181Z,209.93
2023-05-19T09:14:49.198Z,209.71
2023-05-19T09:15:49.234Z,211.59
2023-05-19T09:16:49.270Z,210.51
2023-05-19T09:17:49.266Z,210.21
2023-05-19T09:18:49.297Z,211.06
2023-05-19T09:19:49.323Z,213.48
2023-05-19T09:20:49.337Z,212.03
2023-05-19T09:21:50.209Z,213.73
2023-05-19T09:22:49.502Z,215.31
2023-05-19T09:23:49.406Z,213.89
2023-05-19T09:24:49.425Z,212.44
2023-05-19T09:25:49.457Z,214.69
2023-05-19T09:26:49.479Z,215.59
2023-05-19T09:27:49.500Z,217.01
2023-05-19T09:28:49.585Z,214.31
2023-05-19T09:29:49.729Z,213.60
2023-05-19T09:30:49.886Z,213.84
2023-05-19T09:31:50.097Z,213.27
2023-05-19T09:32:50.296Z,212.45
2023-05-19T09:33:50.413Z,210.99
2023-05-19T09:34:50.653Z,213.01
2023-05-19T09:35:50.736Z,215.19
2023-05-19T09:36:50.903Z,213.24
2023-05-19T09:37:51.093Z,213.57
2023-05-19T09:38:51.197Z,214.54
2023-05-19T09:39:51.333Z,214.08
2023-05-19T09:40:51.474Z,213.52
2023-05-19T09:41:51.717Z,212.12
2023-05-19T09:42:51.757Z,214.91
2023-05-19T09:43:52.031Z,213.50
2023-05-19T09:44:52.056Z,214.53
2023-05-19T09:45:52.188Z,213.94
2023-05-19T09:46:52.361Z,210.73
2023-05-19T09:47:52.717Z,210.56
2023-05-19T09:48:52.680Z,207.72
2023-05-19T09:49:52.934Z,209.46
2023-05-19T09:50:52.977Z,210.91
2023-05-19T09:51:53.119Z,210.72
2023-05-19T09:52:53.282Z,215.46
2023-05-19T09:53:53.383Z,215.71
2023-05-19T09:54:53.550Z,217.26
2023-05-19T09:55:53.686Z,218.22
2023-05-19T09:56:53.847Z,216.68
2023-05-19T09:57:53.953Z,215.84
2023-05-19T09:58:54.073Z,217.40
2023-05-19T09:59:54.229Z,216.84
2023-05-19T10:00:54.378Z,221.48
2023-05-19T10:01:54.581Z,217.91
2023-05-19T10:02:54.732Z,217.48
2023-05-19T10:03:54.800Z,215.34
2023-05-19T10:04:54.959Z,216.91
2023-05-19T10:05:55.059Z,218.27
2023-05-19T10:06:55.196Z,218.36
2023-05-19T10:07:55.346Z,215.73
2023-05-19T10:08:55.478Z,216.78
2023-05-19T10:09:56.682Z,218.06
2023-05-19T10:10:55.838Z,217.03
2023-05-19T10:11:55.936Z,214.53
2023-05-19T10:12:56.063Z,213.40
2023-05-19T10:13:56.213Z,212.50
2023-05-19T10:14:56.326Z,216.05
2023-05-19T10:15:59.244Z,214.88
2023-05-19T10:16:56.621Z,216.75
2023-05-19T10:17:56.459Z,219.41
2023-05-19T10:18:56.469Z,220.79
2023-05-19T10:19:56.385Z,220.29
2023-05-19T10:20:56.412Z,219.78
2023-05-19T10:21:56.405Z,216.90
2023-05-19T10:22:56.375Z,218.87
2023-05-19T10:23:56.376Z,221.61
2023-05-19T10:24:56.364Z,215.19
2023-05-19T10:25:56.366Z,217.52
2023-05-19T10:26:56.379Z,219.03
2023-05-19T10:27:56.389Z,218.73
2023-05-19T10:28:56.320Z,219.05
2023-05-19T10:29:56.320Z,221.29
2023-05-19T10:30:56.322Z,220.89
2023-05-19T10:31:56.364Z,219.43
2023-05-19T10:32:56.385Z,221.82
2023-05-19T10:33:56.297Z,221.91
2023-05-19T10:34:56.285Z,221.85
2023-05-19T10:35:56.283Z,224.00
2023-05-19T10:36:56.294Z,220.86
2023-05-19T10:37:56.305Z,218.81
2023-05-19T10:38:56.261Z,219.22
2023-05-19T10:39:56.271Z,215.52
2023-05-19T10:40:56.258Z,216.84
2023-05-19T10:41:56.248Z,215.92
2023-05-19T10:42:56.245Z,218.47
2023-05-19T10:43:56.215Z,214.15
2023-05-19T10:44:56.229Z,212.27
2023-05-19T10:45:56.334Z,208.92
2023-05-19T10:46:57.130Z,209.64
2023-05-19T10:47:56.263Z,207.37
2023-05-19T10:48:56.299Z,208.79
2023-05-19T10:49:56.253Z,210.75
2023-05-19T10:50:56.173Z,211.63
2023-05-19T10:51:56.190Z,208.35
2023-05-19T10:52:56.195Z,206.98
2023-05-19T10:53:56.175Z,207.09
2023-05-19T10:54:56.156Z,206.96
2023-05-19T10:55:56.267Z,207.82
2023-05-19T10:56:56.134Z,205.72
2023-05-19T10:57:56.149Z,206.16
2023-05-19T10:58:56.172Z,203.87
2023-05-19T10:59:56.132Z,204.73
2023-05-19T11:00:56.149Z,206.08
2023-05-19T11:01:56.153Z,203.49
2023-05-19T11:02:56.321Z,203.10
2023-05-19T11:03:56.170Z,201.71
2023-05-19T11:04:56.140Z,205.15
2023-05-19T11:05:56.098Z,204.80
2023-05-19T11:06:56.105Z,204.78
2023-05-19T11:07:56.261Z,206.10
2023-05-19T11:08:56.119Z,203.53
2023-05-19T11:09:56.120Z,200.89
2023-05-19T11:10:56.131Z,200.86
2023-05-19T11:11:56.120Z,204.76
2023-05-19T11:13:56.277Z,198.09
2023-05-19T11:14:56.190Z,199.13
2023-05-19T11:15:56.181Z,198.34
2023-05-19T11:16:56.232Z,197.04
2023-05-19T11:17:56.272Z,198.26
2023-05-19T11:18:56.234Z,198.85
2023-05-19T11:19:56.198Z,200.71
2023-05-19T11:20:56.282Z,203.80
2023-05-19T11:21:56.458Z,203.66
2023-05-19T11:22:56.596Z,205.67
2023-05-19T11:23:56.742Z,206.51
2023-05-19T11:24:56.829Z,203.33
2023-05-19T11:25:56.984Z,202.31
2023-05-19T11:26:57.114Z,202.95
2023-05-19T11:27:57.207Z,200.76
2023-05-19T11:28:57.335Z,199.72
2023-05-19T11:29:57.421Z,196.24
2023-05-19T11:30:57.726Z,196.72
2023-05-19T11:31:57.795Z,199.73
2023-05-19T11:32:57.943Z,198.90
2023-05-19T11:33:57.969Z,199.70
2023-05-19T11:34:58.119Z,199.71
2023-05-19T11:35:58.267Z,194.98
2023-05-19T11:36:58.201Z,196.99
2023-05-19T11:37:58.197Z,195.64
2023-05-19T11:38:58.225Z,199.21
2023-05-19T11:39:58.250Z,193.72
2023-05-19T11:40:58.354Z,193.60
2023-05-19T11:41:58.329Z,193.73
2023-05-19T11:42:58.486Z,195.50
2023-05-19T11:43:58.343Z,195.51
2023-05-19T11:44:58.426Z,196.33
2023-05-19T11:45:58.416Z,195.51
2023-05-19T11:46:58.410Z,200.12
2023-05-19T11:48:02.776Z,199.69
2023-05-19T11:48:58.437Z,199.75
2023-05-19T11:49:58.432Z,199.81
2023-05-19T11:50:58.409Z,199.21
2023-05-19T11:51:58.417Z,195.76
2023-05-19T11:52:58.619Z,200.53
2023-05-19T11:53:58.395Z,197.53
2023-05-19T11:54:58.379Z,200.00
2023-05-19T11:55:58.368Z,202.96
2023-05-19T11:56:58.407Z,201.29
2023-05-19T11:58:04.066Z,202.53
2023-05-19T11:58:59.370Z,201.81
2023-05-19T11:59:58.354Z,197.45
2023-05-19T12:00:58.340Z,202.50
2023-05-19T12:01:58.360Z,203.01
2023-05-19T12:02:58.452Z,198.91
2023-05-19T12:03:58.499Z,198.02
2023-05-19T12:04:58.372Z,199.09
2023-05-19T12:05:58.332Z,191.33
2023-05-19T12:06:58.327Z,190.94
2023-05-19T12:07:58.308Z,191.83
2023-05-19T12:08:58.301Z,187.70
2023-05-19T12:09:58.308Z,192.66
2023-05-19T12:10:58.311Z,195.12
2023-05-19T12:11:58.300Z,194.40
2023-05-19T12:12:58.271Z,193.88
2023-05-19T12:13:58.279Z,195.53
2023-05-19T12:14:58.308Z,190.65
2023-05-19T12:15:58.327Z,189.73
2023-05-19T12:16:58.344Z,186.95
2023-05-19T12:17:58.410Z,187.65
2023-05-19T12:18:58.567Z,186.87
2023-05-19T12:19:58.412Z,187.83
2023-05-19T12:20:58.441Z,188.29
2023-05-19T12:21:58.513Z,187.49
2023-05-19T12:22:58.496Z,186.31
2023-05-19T12:23:58.511Z,187.72
2023-05-19T12:24:58.510Z,190.77
2023-05-19T12:25:58.532Z,193.83
2023-05-19T12:26:58.660Z,187.91
2023-05-19T12:27:58.624Z,188.63
2023-05-19T12:28:58.646Z,189.46
2023-05-19T12:29:58.634Z,187.47